sensor_id;sensor_type;location;lat;lon;timestamp;pressure;altitude;pressure_sealevel;temperature
15709;BMP180;7954;51.914;8.420;2023-07-28T00:01:59;99216.50;;;23.39
15709;BMP180;7954;51.914;8.420;2023-07-28T00:04:27;99210.97;;;23.53
15709;BMP180;7954;51.914;8.420;2023-07-28T00:06:55;99210.09;;;23.44
15709;BMP180;7954;51.914;8.420;2023-07-28T00:09:25;99207.53;;;23.44
15709;BMP180;7954;51.914;8.420;2023-07-28T00:11:53;99204.47;;;23.48
15709;BMP180;7954;51.914;8.420;2023-07-28T00:14:21;99210.25;;;23.37
15709;BMP180;7954;51.914;8.420;2023-07-28T00:16:51;99215.72;;;23.40
15709;BMP180;7954;51.914;8.420;2023-07-28T00:19:19;99204.84;;;23.26
15709;BMP180;7954;51.914;8.420;2023-07-28T00:21:47;99195.88;;;23.30
15709;BMP180;7954;51.914;8.420;2023-07-28T00:24:16;99210.59;;;23.23
15709;BMP180;7954;51.914;8.420;2023-07-28T00:26:45;99203.47;;;23.29
15709;BMP180;7954;51.914;8.420;2023-07-28T00:29:13;99199.06;;;23.28
15709;BMP180;7954;51.914;8.420;2023-07-28T00:31:41;99196.34;;;23.35
15709;BMP180;7954;51.914;8.420;2023-07-28T00:34:09;99193.88;;;23.45
15709;BMP180;7954;51.914;8.420;2023-07-28T00:36:39;99189.34;;;23.42
15709;BMP180;7954;51.914;8.420;2023-07-28T00:39:08;99189.38;;;23.34
15709;BMP180;7954;51.914;8.420;2023-07-28T00:41:36;99186.03;;;23.35
15709;BMP180;7954;51.914;8.420;2023-07-28T00:44:06;99179.94;;;23.43
15709;BMP180;7954;51.914;8.420;2023-07-28T00:46:33;99184.94;;;23.41
15709;BMP180;7954;51.914;8.420;2023-07-28T00:49:02;99192.53;;;23.40
15709;BMP180;7954;51.914;8.420;2023-07-28T00:51:31;99194.53;;;23.34
15709;BMP180;7954;51.914;8.420;2023-07-28T00:54:00;99189.38;;;23.34
15709;BMP180;7954;51.914;8.420;2023-07-28T00:56:28;99203.59;;;23.39
15709;BMP180;7954;51.914;8.420;2023-07-28T00:58:56;99196.00;;;23.49
15709;BMP180;7954;51.914;8.420;2023-07-28T01:01:26;99200.88;;;23.46
15709;BMP180;7954;51.914;8.420;2023-07-28T01:03:55;99201.31;;;23.42
15709;BMP180;7954;51.914;8.420;2023-07-28T01:06:27;99207.66;;;23.45
15709;BMP180;7954;51.914;8.420;2023-07-28T01:09:02;99206.63;;;23.43
15709;BMP180;7954;51.914;8.420;2023-07-28T01:11:31;99202.03;;;23.49
15709;BMP180;7954;51.914;8.420;2023-07-28T01:13:59;99203.31;;;23.36
15709;BMP180;7954;51.914;8.420;2023-07-28T01:16:29;99203.75;;;23.32
15709;BMP180;7954;51.914;8.420;2023-07-28T01:18:57;99197.25;;;23.35
15709;BMP180;7954;51.914;8.420;2023-07-28T01:21:26;99207.97;;;23.48
15709;BMP180;7954;51.914;8.420;2023-07-28T01:24:01;99205.69;;;23.51
15709;BMP180;7954;51.914;8.420;2023-07-28T01:26:39;99202.00;;;23.58
15709;BMP180;7954;51.914;8.420;2023-07-28T01:29:11;99203.25;;;23.53
15709;BMP180;7954;51.914;8.420;2023-07-28T01:31:41;99207.47;;;23.61
15709;BMP180;7954;51.914;8.420;2023-07-28T01:34:09;99202.00;;;23.58
15709;BMP180;7954;51.914;8.420;2023-07-28T01:36:38;99208.13;;;23.50
15709;BMP180;7954;51.914;8.420;2023-07-28T01:39:06;99212.69;;;23.44
15709;BMP180;7954;51.914;8.420;2023-07-28T01:41:34;99214.97;;;23.41
15709;BMP180;7954;51.914;8.420;2023-07-28T01:44:05;99213.16;;;23.31
15709;BMP180;7954;51.914;8.420;2023-07-28T01:46:33;99204.22;;;23.36
15709;BMP180;7954;51.914;8.420;2023-07-28T01:49:01;99208.47;;;23.36
15709;BMP180;7954;51.914;8.420;2023-07-28T01:51:29;99215.72;;;23.40
15709;BMP180;7954;51.914;8.420;2023-07-28T01:53:57;99210.09;;;23.44
15709;BMP180;7954;51.914;8.420;2023-07-28T01:56:25;99212.41;;;23.41
15709;BMP180;7954;51.914;8.420;2023-07-28T01:58:54;99213.44;;;23.43
15709;BMP180;7954;51.914;8.420;2023-07-28T02:01:24;99205.22;;;23.47
15709;BMP180;7954;51.914;8.420;2023-07-28T02:03:52;99208.91;;;23.40
15709;BMP180;7954;51.914;8.420;2023-07-28T02:06:21;99213.44;;;23.43
15709;BMP180;7954;51.914;8.420;2023-07-28T02:08:49;99207.38;;;23.42
15709;BMP180;7954;51.914;8.420;2023-07-28T02:11:17;99207.38;;;23.42
15709;BMP180;7954;51.914;8.420;2023-07-28T02:13:45;99199.03;;;23.45
15709;BMP180;7954;51.914;8.420;2023-07-28T02:16:13;99203.88;;;23.50
15709;BMP180;7954;51.914;8.420;2023-07-28T02:18:43;99204.06;;;23.43
15709;BMP180;7954;51.914;8.420;2023-07-28T02:21:11;99213.28;;;23.50
15709;BMP180;7954;51.914;8.420;2023-07-28T02:23:39;99216.00;;;23.51
15709;BMP180;7954;51.914;8.420;2023-07-28T02:26:07;99210.38;;;23.47
15709;BMP180;7954;51.914;8.420;2023-07-28T02:28:35;99220.44;;;23.35
15709;BMP180;7954;51.914;8.420;2023-07-28T02:31:03;99225.44;;;23.34
15709;BMP180;7954;51.914;8.420;2023-07-28T02:33:31;99219.41;;;23.33
15709;BMP180;7954;51.914;8.420;2023-07-28T02:36:03;99223.75;;;23.43
15709;BMP180;7954;51.914;8.420;2023-07-28T02:38:31;99225.72;;;23.45
15709;BMP180;7954;51.914;8.420;2023-07-28T02:40:59;99216.81;;;23.33
15709;BMP180;7954;51.914;8.420;2023-07-28T02:43:27;99221.78;;;23.40
15709;BMP180;7954;51.914;8.420;2023-07-28T02:45:56;99221.78;;;23.32
15709;BMP180;7954;51.914;8.420;2023-07-28T02:48:24;99225.28;;;23.41
15709;BMP180;7954;51.914;8.420;2023-07-28T02:50:52;99226.31;;;23.43
15709;BMP180;7954;51.914;8.420;2023-07-28T02:53:22;99226.91;;;23.49
15709;BMP180;7954;51.914;8.420;2023-07-28T02:55:50;99225.09;;;23.39
15709;BMP180;7954;51.914;8.420;2023-07-28T02:58:19;99219.06;;;23.30
15709;BMP180;7954;51.914;8.420;2023-07-28T03:00:47;99225.44;;;23.34
15709;BMP180;7954;51.914;8.420;2023-07-28T03:03:15;99232.69;;;23.38
15709;BMP180;7954;51.914;8.420;2023-07-28T03:05:44;99233.31;;;23.44
15709;BMP180;7954;51.914;8.420;2023-07-28T03:08:12;99240.00;;;23.33
15709;BMP180;7954;51.914;8.420;2023-07-28T03:10:41;99239.41;;;23.36
15709;BMP180;7954;51.914;8.420;2023-07-28T03:13:10;99240.91;;;23.34
15709;BMP180;7954;51.914;8.420;2023-07-28T03:15:38;99245.16;;;23.33
15709;BMP180;7954;51.914;8.420;2023-07-28T03:18:06;99249.97;;;23.39
15709;BMP180;7954;51.914;8.420;2023-07-28T03:20:34;99255.13;;;23.39
15709;BMP180;7954;51.914;8.420;2023-07-28T03:23:02;99242.53;;;23.42
15709;BMP180;7954;51.914;8.420;2023-07-28T03:25:30;99250.59;;;23.28
15709;BMP180;7954;51.914;8.420;2023-07-28T03:28:00;99243.47;;;23.34
15709;BMP180;7954;51.914;8.420;2023-07-28T03:30:28;99256.38;;;23.34
15709;BMP180;7954;51.914;8.420;2023-07-28T03:32:56;99245.72;;;23.39
15709;BMP180;7954;51.914;8.420;2023-07-28T03:35:24;99255.88;;;23.38
15709;BMP180;7954;51.914;8.420;2023-07-28T03:37:53;99250.75;;;23.38
15709;BMP180;7954;51.914;8.420;2023-07-28T03:40:21;99250.88;;;23.39
15709;BMP180;7954;51.914;8.420;2023-07-28T03:42:49;99249.66;;;23.44
15709;BMP180;7954;51.914;8.420;2023-07-28T03:45:19;99258.19;;;23.43
15709;BMP180;7954;51.914;8.420;2023-07-28T03:47:47;99258.31;;;23.53
15709;BMP180;7954;51.914;8.420;2023-07-28T03:50:15;99251.31;;;23.52
15709;BMP180;7954;51.914;8.420;2023-07-28T03:52:43;99248.88;;;23.54
15709;BMP180;7954;51.914;8.420;2023-07-28T03:55:11;99259.78;;;23.60
15709;BMP180;7954;51.914;8.420;2023-07-28T03:57:39;99251.94;;;23.58
15709;BMP180;7954;51.914;8.420;2023-07-28T04:00:08;99258.72;;;23.58
15709;BMP180;7954;51.914;8.420;2023-07-28T04:02:38;99257.81;;;23.66
15709;BMP180;7954;51.914;8.420;2023-07-28T04:05:06;99261.00;;;23.72
15709;BMP180;7954;51.914;8.420;2023-07-28T04:07:35;99253.56;;;23.75
15709;BMP180;7954;51.914;8.420;2023-07-28T04:10:04;99259.75;;;23.77
15709;BMP180;7954;51.914;8.420;2023-07-28T04:12:32;99250.78;;;23.82
15709;BMP180;7954;51.914;8.420;2023-07-28T04:14:59;99252.63;;;23.83
15709;BMP180;7954;51.914;8.420;2023-07-28T04:17:28;99252.72;;;23.93
15709;BMP180;7954;51.914;8.420;2023-07-28T04:19:57;99254.53;;;23.94
15709;BMP180;7954;51.914;8.420;2023-07-28T04:22:27;99258.97;;;23.86
15709;BMP180;7954;51.914;8.420;2023-07-28T04:24:55;99251.72;;;23.82
15709;BMP180;7954;51.914;8.420;2023-07-28T04:27:23;99252.13;;;23.87
15709;BMP180;7954;51.914;8.420;2023-07-28T04:29:51;99260.81;;;23.87
15709;BMP180;7954;51.914;8.420;2023-07-28T04:32:19;99259.59;;;23.84
15709;BMP180;7954;51.914;8.420;2023-07-28T04:34:47;99262.28;;;23.94
15709;BMP180;7954;51.914;8.420;2023-07-28T04:37:16;99266.56;;;23.93
15709;BMP180;7954;51.914;8.420;2023-07-28T04:39:44;99271.72;;;23.93
15709;BMP180;7954;51.914;8.420;2023-07-28T04:42:12;99273.47;;;24.02
15709;BMP180;7954;51.914;8.420;2023-07-28T04:44:40;99273.19;;;23.99
15709;BMP180;7954;51.914;8.420;2023-07-28T04:47:08;99276.25;;;23.96
15709;BMP180;7954;51.914;8.420;2023-07-28T04:49:36;99282.91;;;23.94
15709;BMP180;7954;51.914;8.420;2023-07-28T04:52:04;99285.97;;;23.90
15709;BMP180;7954;51.914;8.420;2023-07-28T04:54:34;99281.72;;;23.82
15709;BMP180;7954;51.914;8.420;2023-07-28T04:57:02;99280.81;;;23.90
15709;BMP180;7954;51.914;8.420;2023-07-28T04:59:30;99287.97;;;23.84
15709;BMP180;7954;51.914;8.420;2023-07-28T05:01:59;99287.50;;;23.79
15709;BMP180;7954;51.914;8.420;2023-07-28T05:04:27;99287.13;;;24.01
15709;BMP180;7954;51.914;8.420;2023-07-28T05:06:55;99283.63;;;24.09
15709;BMP180;7954;51.914;8.420;2023-07-28T05:09:22;99286.19;;;24.09
15709;BMP180;7954;51.914;8.420;2023-07-28T05:11:52;99286.94;;;24.17
15709;BMP180;7954;51.914;8.420;2023-07-28T05:14:20;99280.38;;;24.20
15709;BMP180;7954;51.914;8.420;2023-07-28T05:16:48;99284.31;;;24.25
15709;BMP180;7954;51.914;8.420;2023-07-28T05:19:16;99288.97;;;24.29
15709;BMP180;7954;51.914;8.420;2023-07-28T05:21:44;99286.72;;;24.24
15709;BMP180;7954;51.914;8.420;2023-07-28T05:24:12;99284.09;;;24.32
15709;BMP180;7954;51.914;8.420;2023-07-28T05:26:40;99290.00;;;24.40
15709;BMP180;7954;51.914;8.420;2023-07-28T05:29:09;99289.38;;;24.42
15709;BMP180;7954;51.914;8.420;2023-07-28T05:31:38;99292.78;;;24.33
15709;BMP180;7954;51.914;8.420;2023-07-28T05:34:06;99298.47;;;24.39
15709;BMP180;7954;51.914;8.420;2023-07-28T05:36:34;99292.59;;;24.40
15709;BMP180;7954;51.914;8.420;2023-07-28T05:39:02;99293.66;;;24.33
15709;BMP180;7954;51.914;8.420;2023-07-28T05:41:30;99294.25;;;24.48
15709;BMP180;7954;51.914;8.420;2023-07-28T05:43:59;99300.28;;;24.48
15709;BMP180;7954;51.914;8.420;2023-07-28T05:46:30;99302.59;;;24.37
15709;BMP180;7954;51.914;8.420;2023-07-28T05:48:59;99303.38;;;24.44
15709;BMP180;7954;51.914;8.420;2023-07-28T05:51:27;99303.38;;;24.44
15709;BMP180;7954;51.914;8.420;2023-07-28T05:53:55;99304.50;;;24.56
15709;BMP180;7954;51.914;8.420;2023-07-28T05:56:23;99315.41;;;24.62
15709;BMP180;7954;51.914;8.420;2023-07-28T05:58:51;99311.66;;;24.77
15709;BMP180;7954;51.914;8.420;2023-07-28T06:01:19;99308.53;;;24.89
15709;BMP180;7954;51.914;8.420;2023-07-28T06:03:48;99305.44;;;24.93
15709;BMP180;7954;51.914;8.420;2023-07-28T06:06:18;99304.47;;;25.10
15709;BMP180;7954;51.914;8.420;2023-07-28T06:08:47;99310.72;;;25.22
15709;BMP180;7954;51.914;8.420;2023-07-28T06:11:15;99318.50;;;25.22
15709;BMP180;7954;51.914;8.420;2023-07-28T06:13:43;99321.44;;;25.16
15709;BMP180;7954;51.914;8.420;2023-07-28T06:16:12;99324.91;;;25.17
15709;BMP180;7954;51.914;8.420;2023-07-28T06:18:40;99326.94;;;25.11
15709;BMP180;7954;51.914;8.420;2023-07-28T06:21:10;99343.38;;;25.03
15709;BMP180;7954;51.914;8.420;2023-07-28T06:23:39;99338.22;;;25.03
15709;BMP180;7954;51.914;8.420;2023-07-28T06:26:07;99335.56;;;24.93
15709;BMP180;7954;51.914;8.420;2023-07-28T06:28:35;99342.56;;;24.94
15709;BMP180;7954;51.914;8.420;2023-07-28T06:31:04;99340.16;;;25.14
15709;BMP180;7954;51.914;8.420;2023-07-28T06:33:32;99340.56;;;25.18
15709;BMP180;7954;51.914;8.420;2023-07-28T06:36:00;99349.00;;;25.44
15709;BMP180;7954;51.914;8.420;2023-07-28T06:38:29;99351.41;;;25.32
15709;BMP180;7954;51.914;8.420;2023-07-28T06:40:57;99349.88;;;25.34
15709;BMP180;7954;51.914;8.420;2023-07-28T06:43:25;99352.34;;;25.61
15709;BMP180;7954;51.914;8.420;2023-07-28T06:45:54;99345.47;;;25.52
15709;BMP180;7954;51.914;8.420;2023-07-28T06:48:22;99343.13;;;25.55
15709;BMP180;7954;51.914;8.420;2023-07-28T06:50:51;99356.94;;;25.45
15709;BMP180;7954;51.914;8.420;2023-07-28T06:53:19;99366.41;;;25.36
15709;BMP180;7954;51.914;8.420;2023-07-28T06:55:48;99367.41;;;25.47
15709;BMP180;7954;51.914;8.420;2023-07-28T06:58:16;99356.63;;;25.79
15709;BMP180;7954;51.914;8.420;2023-07-28T07:00:44;99356.41;;;25.86
15709;BMP180;7954;51.914;8.420;2023-07-28T07:03:12;99357.97;;;25.84
15709;BMP180;7954;51.914;8.420;2023-07-28T07:05:41;99353.59;;;25.93
15709;BMP180;7954;51.914;8.420;2023-07-28T07:08:10;99359.47;;;25.82
15709;BMP180;7954;51.914;8.420;2023-07-28T07:10:38;99359.41;;;25.91
15709;BMP180;7954;51.914;8.420;2023-07-28T07:13:08;99363.75;;;25.82
15709;BMP180;7954;51.914;8.420;2023-07-28T07:15:38;99366.22;;;25.80
15709;BMP180;7954;51.914;8.420;2023-07-28T07:18:06;99373.81;;;25.79
15709;BMP180;7954;51.914;8.420;2023-07-28T07:20:34;99370.25;;;25.87
15709;BMP180;7954;51.914;8.420;2023-07-28T07:23:02;99373.22;;;25.91
15709;BMP180;7954;51.914;8.420;2023-07-28T07:25:31;99375.41;;;26.05
15709;BMP180;7954;51.914;8.420;2023-07-28T07:27:59;99379.03;;;26.17
15709;BMP180;7954;51.914;8.420;2023-07-28T07:30:32;99382.34;;;26.06
15709;BMP180;7954;51.914;8.420;2023-07-28T07:33:00;99389.03;;;26.12
15709;BMP180;7954;51.914;8.420;2023-07-28T07:35:28;99391.31;;;26.09
15709;BMP180;7954;51.914;8.420;2023-07-28T07:37:56;99389.06;;;25.94
15709;BMP180;7954;51.914;8.420;2023-07-28T07:40:24;99398.88;;;26.16
15709;BMP180;7954;51.914;8.420;2023-07-28T07:42:54;99392.53;;;26.23
15709;BMP180;7954;51.914;8.420;2023-07-28T07:45:22;99403.44;;;26.29
15709;BMP180;7954;51.914;8.420;2023-07-28T07:47:52;99391.47;;;26.49
15709;BMP180;7954;51.914;8.420;2023-07-28T07:50:22;99415.16;;;26.92
15709;BMP180;7954;51.914;8.420;2023-07-28T07:52:50;99394.31;;;27.40
15709;BMP180;7954;51.914;8.420;2023-07-28T07:55:18;99397.19;;;27.43
15709;BMP180;7954;51.914;8.420;2023-07-28T07:57:46;99391.22;;;27.54
15709;BMP180;7954;51.914;8.420;2023-07-28T08:00:16;99397.56;;;27.67
15709;BMP180;7954;51.914;8.420;2023-07-28T08:02:45;99400.53;;;27.72
15709;BMP180;7954;51.914;8.420;2023-07-28T08:05:15;99397.16;;;27.73
15709;BMP180;7954;51.914;8.420;2023-07-28T08:07:43;99396.84;;;27.90
15709;BMP180;7954;51.914;8.420;2023-07-28T08:10:13;99401.00;;;27.97
15709;BMP180;7954;51.914;8.420;2023-07-28T08:12:41;99407.91;;;27.77
15709;BMP180;7954;51.914;8.420;2023-07-28T08:15:11;99396.81;;;28.09
15709;BMP180;7954;51.914;8.420;2023-07-28T08:17:39;99401.84;;;28.18
15709;BMP180;7954;51.914;8.420;2023-07-28T08:20:08;99388.97;;;28.29
15709;BMP180;7954;51.914;8.420;2023-07-28T08:22:38;99394.94;;;28.28
15709;BMP180;7954;51.914;8.420;2023-07-28T08:25:06;99402.88;;;28.20
15709;BMP180;7954;51.914;8.420;2023-07-28T08:27:34;99397.22;;;28.35
15709;BMP180;7954;51.914;8.420;2023-07-28T08:30:03;99400.69;;;28.67
15709;BMP180;7954;51.914;8.420;2023-07-28T08:32:32;99392.97;;;28.57
15709;BMP180;7954;51.914;8.420;2023-07-28T08:35:00;99400.03;;;28.48
15709;BMP180;7954;51.914;8.420;2023-07-28T08:37:29;99388.84;;;28.70
15709;BMP180;7954;51.914;8.420;2023-07-28T08:39:59;99393.69;;;28.66
15709;BMP180;7954;51.914;8.420;2023-07-28T08:42:30;99395.94;;;28.61
15709;BMP180;7954;51.914;8.420;2023-07-28T08:44:59;99414.22;;;28.42
15709;BMP180;7954;51.914;8.420;2023-07-28T08:47:27;99418.28;;;28.38
15709;BMP180;7954;51.914;8.420;2023-07-28T08:49:56;99406.63;;;28.55
15709;BMP180;7954;51.914;8.420;2023-07-28T08:52:24;99431.03;;;28.88
15709;BMP180;7954;51.914;8.420;2023-07-28T08:54:53;99432.25;;;29.14
15709;BMP180;7954;51.914;8.420;2023-07-28T08:57:23;99432.19;;;28.91
15709;BMP180;7954;51.914;8.420;2023-07-28T08:59:50;99425.03;;;29.22
15709;BMP180;7954;51.914;8.420;2023-07-28T09:02:20;99417.50;;;29.03
15709;BMP180;7954;51.914;8.420;2023-07-28T09:04:49;99433.78;;;29.01
15709;BMP180;7954;51.914;8.420;2023-07-28T09:07:17;99434.16;;;29.05
15709;BMP180;7954;51.914;8.420;2023-07-28T09:09:45;99436.28;;;28.99
15709;BMP180;7954;51.914;8.420;2023-07-28T09:12:13;99437.72;;;28.96
15709;BMP180;7954;51.914;8.420;2023-07-28T09:14:43;99436.94;;;28.97
15709;BMP180;7954;51.914;8.420;2023-07-28T09:17:12;99441.69;;;29.24
15709;BMP180;7954;51.914;8.420;2023-07-28T09:19:59;99434.97;;;29.37
15709;BMP180;7954;51.914;8.420;2023-07-28T09:22:30;99436.47;;;29.45
15709;BMP180;7954;51.914;8.420;2023-07-28T09:25:11;99427.72;;;29.12
15709;BMP180;7954;51.914;8.420;2023-07-28T09:27:40;99430.97;;;28.98
15709;BMP180;7954;51.914;8.420;2023-07-28T09:30:10;99430.63;;;29.05
15709;BMP180;7954;51.914;8.420;2023-07-28T09:32:46;99434.09;;;28.94
15709;BMP180;7954;51.914;8.420;2023-07-28T09:35:16;99439.53;;;28.97
15709;BMP180;7954;51.914;8.420;2023-07-28T09:37:46;99452.00;;;28.79
15709;BMP180;7954;51.914;8.420;2023-07-28T09:40:17;99446.91;;;28.81
15709;BMP180;7954;51.914;8.420;2023-07-28T09:42:46;99456.09;;;28.87
15709;BMP180;7954;51.914;8.420;2023-07-28T09:45:22;99455.22;;;28.87
15709;BMP180;7954;51.914;8.420;2023-07-28T09:47:57;99461.38;;;28.99
15709;BMP180;7954;51.914;8.420;2023-07-28T09:50:26;99451.16;;;28.90
15709;BMP180;7954;51.914;8.420;2023-07-28T09:52:58;99457.88;;;28.77
15709;BMP180;7954;51.914;8.420;2023-07-28T09:55:28;99445.66;;;28.76
15709;BMP180;7954;51.914;8.420;2023-07-28T09:57:58;99459.88;;;28.59
15709;BMP180;7954;51.914;8.420;2023-07-28T10:00:31;99457.09;;;28.68
15709;BMP180;7954;51.914;8.420;2023-07-28T10:03:01;99458.66;;;28.66
15709;BMP180;7954;51.914;8.420;2023-07-28T10:05:30;99464.81;;;28.25
15709;BMP180;7954;51.914;8.420;2023-07-28T10:07:59;99469.50;;;28.29
15709;BMP180;7954;51.914;8.420;2023-07-28T10:10:28;99471.50;;;28.43
15709;BMP180;7954;51.914;8.420;2023-07-28T10:12:58;99471.19;;;28.50
15709;BMP180;7954;51.914;8.420;2023-07-28T10:15:32;99469.88;;;28.55
15709;BMP180;7954;51.914;8.420;2023-07-28T10:18:00;99475.00;;;28.44
15709;BMP180;7954;51.914;8.420;2023-07-28T10:20:30;99470.75;;;28.44
15709;BMP180;7954;51.914;8.420;2023-07-28T10:23:05;99480.59;;;28.48
15709;BMP180;7954;51.914;8.420;2023-07-28T10:25:35;99476.94;;;28.46
15709;BMP180;7954;51.914;8.420;2023-07-28T10:28:04;99475.69;;;28.31
15709;BMP180;7954;51.914;8.420;2023-07-28T10:30:51;99492.88;;;28.29
15709;BMP180;7954;51.914;8.420;2023-07-28T10:33:27;99498.84;;;28.91
15709;BMP180;7954;51.914;8.420;2023-07-28T10:35:57;99489.38;;;29.34
15709;BMP180;7954;51.914;8.420;2023-07-28T10:38:31;99501.66;;;29.46
15709;BMP180;7954;51.914;8.420;2023-07-28T10:41:20;99488.75;;;29.81
15709;BMP180;7954;51.914;8.420;2023-07-28T10:43:49;99472.25;;;30.26
15709;BMP180;7954;51.914;8.420;2023-07-28T10:46:20;99480.75;;;30.35
15709;BMP180;7954;51.914;8.420;2023-07-28T10:48:50;99486.75;;;30.22
15709;BMP180;7954;51.914;8.420;2023-07-28T10:51:21;99489.16;;;30.19
15709;BMP180;7954;51.914;8.420;2023-07-28T10:53:55;99485.53;;;30.52
15709;BMP180;7954;51.914;8.420;2023-07-28T10:56:24;99480.72;;;30.80
15709;BMP180;7954;51.914;8.420;2023-07-28T10:58:56;99474.66;;;30.68
15709;BMP180;7954;51.914;8.420;2023-07-28T11:01:31;99480.13;;;30.84
15709;BMP180;7954;51.914;8.420;2023-07-28T11:04:09;99479.34;;;31.08
15709;BMP180;7954;51.914;8.420;2023-07-28T11:06:38;99462.78;;;31.32
15709;BMP180;7954;51.914;8.420;2023-07-28T11:09:09;99475.06;;;31.46
15709;BMP180;7954;51.914;8.420;2023-07-28T11:11:38;99461.22;;;31.47
15709;BMP180;7954;51.914;8.420;2023-07-28T11:14:08;99466.88;;;31.28
15709;BMP180;7954;51.914;8.420;2023-07-28T11:16:40;99464.41;;;31.67
15709;BMP180;7954;51.914;8.420;2023-07-28T11:19:11;99451.19;;;31.77
15709;BMP180;7954;51.914;8.420;2023-07-28T11:21:41;99453.22;;;31.94
15709;BMP180;7954;51.914;8.420;2023-07-28T11:24:11;99456.47;;;32.03
15709;BMP180;7954;51.914;8.420;2023-07-28T11:26:41;99455.41;;;32.12
15709;BMP180;7954;51.914;8.420;2023-07-28T11:29:09;99462.81;;;32.19
15709;BMP180;7954;51.914;8.420;2023-07-28T11:31:41;99461.22;;;32.21
15709;BMP180;7954;51.914;8.420;2023-07-28T11:34:13;99451.75;;;32.36
15709;BMP180;7954;51.914;8.420;2023-07-28T11:36:41;99453.66;;;32.52
15709;BMP180;7954;51.914;8.420;2023-07-28T11:39:10;99468.66;;;32.41
15709;BMP180;7954;51.914;8.420;2023-07-28T11:41:39;99461.63;;;32.27
15709;BMP180;7954;51.914;8.420;2023-07-28T11:44:08;99454.75;;;32.03
15709;BMP180;7954;51.914;8.420;2023-07-28T11:46:39;99472.56;;;31.72
15709;BMP180;7954;51.914;8.420;2023-07-28T11:49:13;99473.19;;;31.93
15709;BMP180;7954;51.914;8.420;2023-07-28T11:51:44;99461.22;;;32.47
15709;BMP180;7954;51.914;8.420;2023-07-28T11:54:14;99447.66;;;32.14
15709;BMP180;7954;51.914;8.420;2023-07-28T11:56:42;99455.78;;;31.81
15709;BMP180;7954;51.914;8.420;2023-07-28T11:59:11;99451.34;;;31.54
15709;BMP180;7954;51.914;8.420;2023-07-28T12:01:54;99466.69;;;31.50
15709;BMP180;7954;51.914;8.420;2023-07-28T12:04:26;99453.03;;;31.29
15709;BMP180;7954;51.914;8.420;2023-07-28T12:07:06;99464.72;;;31.47
15709;BMP180;7954;51.914;8.420;2023-07-28T12:09:53;99460.31;;;31.84
15709;BMP180;7954;51.914;8.420;2023-07-28T12:12:30;99470.22;;;32.00
15709;BMP180;7954;51.914;8.420;2023-07-28T12:15:18;99481.91;;;32.44
15709;BMP180;7954;51.914;8.420;2023-07-28T12:18:16;99472.97;;;33.05
15709;BMP180;7954;51.914;8.420;2023-07-28T12:20:51;99461.47;;;33.30
15709;BMP180;7954;51.914;8.420;2023-07-28T12:23:21;99449.22;;;33.44
15709;BMP180;7954;51.914;8.420;2023-07-28T12:25:52;99459.63;;;33.15
15709;BMP180;7954;51.914;8.420;2023-07-28T12:28:22;99469.63;;;33.49
15709;BMP180;7954;51.914;8.420;2023-07-28T12:30:52;99443.38;;;33.21
15709;BMP180;7954;51.914;8.420;2023-07-28T12:33:24;99452.38;;;32.98
15709;BMP180;7954;51.914;8.420;2023-07-28T12:36:04;99452.22;;;32.82
15709;BMP180;7954;51.914;8.420;2023-07-28T12:38:37;99447.53;;;32.64
15709;BMP180;7954;51.914;8.420;2023-07-28T12:41:08;99453.75;;;32.40
15709;BMP180;7954;51.914;8.420;2023-07-28T12:43:37;99452.88;;;32.14
15709;BMP180;7954;51.914;8.420;2023-07-28T12:46:08;99459.81;;;32.26
15709;BMP180;7954;51.914;8.420;2023-07-28T12:48:39;99452.97;;;32.41
15709;BMP180;7954;51.914;8.420;2023-07-28T12:51:10;99458.22;;;32.54
15709;BMP180;7954;51.914;8.420;2023-07-28T12:53:38;99453.91;;;32.95
15709;BMP180;7954;51.914;8.420;2023-07-28T12:56:07;99444.03;;;33.04
15709;BMP180;7954;51.914;8.420;2023-07-28T12:58:35;99473.69;;;33.72
15709;BMP180;7954;51.914;8.420;2023-07-28T13:01:06;99445.44;;;34.09
15709;BMP180;7954;51.914;8.420;2023-07-28T13:03:35;99454.91;;;34.07
15709;BMP180;7954;51.914;8.420;2023-07-28T13:06:06;99471.06;;;35.66
15709;BMP180;7954;51.914;8.420;2023-07-28T13:08:35;99427.00;;;35.45
15709;BMP180;7954;51.914;8.420;2023-07-28T13:11:05;99441.19;;;34.86
15709;BMP180;7954;51.914;8.420;2023-07-28T13:13:36;99474.00;;;35.40
15709;BMP180;7954;51.914;8.420;2023-07-28T13:16:05;99438.03;;;35.71
15709;BMP180;7954;51.914;8.420;2023-07-28T13:18:39;99441.06;;;35.79
15709;BMP180;7954;51.914;8.420;2023-07-28T13:21:09;99482.06;;;35.91
15709;BMP180;7954;51.914;8.420;2023-07-28T13:23:38;99487.56;;;38.10
15709;BMP180;7954;51.914;8.420;2023-07-28T13:26:06;99484.19;;;38.95
15709;BMP180;7954;51.914;8.420;2023-07-28T13:28:34;99479.34;;;40.46
15709;BMP180;7954;51.914;8.420;2023-07-28T13:31:03;99440.00;;;42.01
15709;BMP180;7954;51.914;8.420;2023-07-28T13:33:32;99474.03;;;43.58
15709;BMP180;7954;51.914;8.420;2023-07-28T13:36:02;99420.91;;;44.60
15709;BMP180;7954;51.914;8.420;2023-07-28T13:38:35;99453.41;;;44.91
15709;BMP180;7954;51.914;8.420;2023-07-28T13:41:04;99421.13;;;44.75
15709;BMP180;7954;51.914;8.420;2023-07-28T13:43:33;99399.22;;;43.46
15709;BMP180;7954;51.914;8.420;2023-07-28T13:46:02;99475.50;;;41.75
15709;BMP180;7954;51.914;8.420;2023-07-28T13:48:32;99408.19;;;40.84
15709;BMP180;7954;51.914;8.420;2023-07-28T13:51:19;99413.78;;;38.97
15709;BMP180;7954;51.914;8.420;2023-07-28T13:54:09;99476.94;;;38.49
15709;BMP180;7954;51.914;8.420;2023-07-28T13:56:41;99491.22;;;41.68
15709;BMP180;7954;51.914;8.420;2023-07-28T13:59:26;99478.22;;;43.90
15709;BMP180;7954;51.914;8.420;2023-07-28T14:01:54;99396.56;;;44.96
15709;BMP180;7954;51.914;8.420;2023-07-28T14:04:24;99457.38;;;45.20
15709;BMP180;7954;51.914;8.420;2023-07-28T14:06:56;99391.63;;;42.48
15709;BMP180;7954;51.914;8.420;2023-07-28T14:09:26;99408.88;;;40.24
15709;BMP180;7954;51.914;8.420;2023-07-28T14:11:55;99409.22;;;38.71
15709;BMP180;7954;51.914;8.420;2023-07-28T14:14:23;99420.59;;;37.69
15709;BMP180;7954;51.914;8.420;2023-07-28T14:16:51;99426.84;;;36.78
15709;BMP180;7954;51.914;8.420;2023-07-28T14:19:18;99432.66;;;36.01
15709;BMP180;7954;51.914;8.420;2023-07-28T14:21:46;99430.44;;;35.44
15709;BMP180;7954;51.914;8.420;2023-07-28T14:24:15;99441.72;;;35.27
15709;BMP180;7954;51.914;8.420;2023-07-28T14:26:45;99431.91;;;34.77
15709;BMP180;7954;51.914;8.420;2023-07-28T14:29:13;99442.25;;;34.29
15709;BMP180;7954;51.914;8.420;2023-07-28T14:31:41;99440.63;;;34.02
15709;BMP180;7954;51.914;8.420;2023-07-28T14:34:10;99489.59;;;36.34
15709;BMP180;7954;51.914;8.420;2023-07-28T14:36:38;99472.63;;;36.63